Time;durP1;ratioP1;P1;durP2;ratioP2;P2;SDS_P1;SDS_P2;PMS_P1;PMS_P2;Temp;Humidity;BMP_temperature;BMP_pressure;BME280_temperature;BME280_humidity;BME280_pressure;Samples;Min_cycle;Max_cycle;Signal;HPM_P1;HPM_P2
2021/07/28 00:00:35;;;;;;;42.25;21.15;;;;;;;;;;5056513;28;20033;-67
2021/07/28 00:03:01;;;;;;;33.67;20.42;;;;;;;;;;5050968;28;20021;-67
2021/07/28 00:05:27;;;;;;;32.03;20.55;;;;;;;;;;5055292;28;20032;-67
2021/07/28 00:07:53;;;;;;;35.00;20.38;;;;;;;;;;5054817;28;20039;-66
2021/07/28 00:10:19;;;;;;;36.05;21.30;;;;;;;;;;5061046;28;20122;-66
2021/07/28 00:12:45;;;;;;;37.85;21.48;;;;;;;;;;5055115;28;20029;-66
2021/07/28 00:15:12;;;;;;;40.08;22.00;;;;;;;;;;5052620;28;20024;-66
2021/07/28 00:17:47;;;;;;;40.70;21.23;;;;;;;;;;5045615;28;20033;-66
2021/07/28 00:20:29;;;;;;;38.35;21.15;;;;;;;;;;5038332;28;20037;-66
2021/07/28 00:23:14;;;;;;;46.13;22.85;;;;;;;;;;5040849;28;20155;-67
2021/07/28 00:25:40;;;;;;;41.58;22.33;;;;;;;;;;5056883;28;20036;-66
2021/07/28 00:28:06;;;;;;;39.72;22.58;;;;;;;;;;5048540;28;20057;-67
2021/07/28 00:30:33;;;;;;;34.50;20.77;;;;;;;;;;5047381;28;20048;-66
2021/07/28 00:32:59;;;;;;;40.45;23.25;;;;;;;;;;5048975;28;20024;-66
2021/07/28 00:35:25;;;;;;;43.55;24.17;;;;;;;;;;5047435;28;20529;-66
2021/07/28 00:37:51;;;;;;;42.20;26.30;;;;;;;;;;5056541;28;20032;-67
2021/07/28 00:40:17;;;;;;;45.85;23.75;;;;;;;;;;5065132;28;20054;-67
2021/07/28 00:42:44;;;;;;;42.10;24.08;;;;;;;;;;5061069;28;20526;-67
2021/07/28 00:45:10;;;;;;;39.38;24.30;;;;;;;;;;5061722;28;20024;-66
2021/07/28 00:47:36;;;;;;;45.25;25.75;;;;;;;;;;5059042;28;20377;-66
2021/07/28 00:50:05;;;;;;;49.28;25.58;;;;;;;;;;5060333;28;20051;-66
2021/07/28 00:52:37;;;;;;;47.88;26.38;;;;;;;;;;5057332;28;20025;-67
2021/07/28 00:55:03;;;;;;;43.67;25.58;;;;;;;;;;5047700;28;20025;-66
2021/07/28 00:57:29;;;;;;;45.92;26.10;;;;;;;;;;5051584;28;20033;-66
2021/07/28 00:59:55;;;;;;;44.17;26.33;;;;;;;;;;5054269;28;20681;-67
2021/07/28 01:02:21;;;;;;;42.22;25.88;;;;;;;;;;5057892;28;20029;-67
2021/07/28 01:04:47;;;;;;;47.33;27.88;;;;;;;;;;5061470;28;20611;-67
2021/07/28 01:07:13;;;;;;;47.10;28.13;;;;;;;;;;5056929;28;20032;-66
2021/07/28 01:09:39;;;;;;;44.40;26.65;;;;;;;;;;5067276;28;20027;-67
2021/07/28 01:12:06;;;;;;;48.42;27.73;;;;;;;;;;5062071;28;20068;-67
2021/07/28 01:14:32;;;;;;;49.95;27.33;;;;;;;;;;5061576;28;20069;-67
2021/07/28 01:16:58;;;;;;;43.35;26.25;;;;;;;;;;5060096;28;20025;-66
2021/07/28 01:19:27;;;;;;;42.40;28.02;;;;;;;;;;5056584;28;20122;-67
2021/07/28 01:21:53;;;;;;;48.35;24.42;;;;;;;;;;5058219;28;20613;-67
2021/07/28 01:24:19;;;;;;;45.90;26.73;;;;;;;;;;5059487;28;20040;-66
2021/07/28 01:26:45;;;;;;;46.20;27.50;;;;;;;;;;5056929;28;20028;-67
2021/07/28 01:29:12;;;;;;;41.00;25.00;;;;;;;;;;5059598;28;20030;-67
2021/07/28 01:31:43;;;;;;;43.05;25.45;;;;;;;;;;5061136;28;20028;-67
2021/07/28 01:34:09;;;;;;;45.25;26.73;;;;;;;;;;5058343;28;20033;-67
2021/07/28 01:36:36;;;;;;;45.50;28.40;;;;;;;;;;5058957;28;20049;-67
2021/07/28 01:39:03;;;;;;;45.08;27.40;;;;;;;;;;5064158;28;20446;-67
2021/07/28 01:41:29;;;;;;;49.65;28.33;;;;;;;;;;5062644;28;20040;-66
2021/07/28 01:43:55;;;;;;;47.75;27.02;;;;;;;;;;5058502;28;20036;-66
2021/07/28 01:46:22;;;;;;;47.08;26.88;;;;;;;;;;5059411;28;20025;-67
2021/07/28 01:48:48;;;;;;;54.05;29.80;;;;;;;;;;5061467;28;20032;-67
2021/07/28 01:51:14;;;;;;;51.72;30.88;;;;;;;;;;5061763;28;20023;-67
2021/07/28 01:53:43;;;;;;;51.17;29.73;;;;;;;;;;5059889;28;20031;-66
2021/07/28 01:56:09;;;;;;;43.90;26.05;;;;;;;;;;5052085;28;20052;-67
2021/07/28 01:58:38;;;;;;;49.53;27.50;;;;;;;;;;5058579;28;20579;-67
2021/07/28 02:01:04;;;;;;;51.15;27.90;;;;;;;;;;5054357;28;20025;-67
2021/07/28 02:03:30;;;;;;;55.88;28.38;;;;;;;;;;5057957;28;20021;-66
2021/07/28 02:05:56;;;;;;;46.53;26.95;;;;;;;;;;5057264;28;20033;-66
2021/07/28 02:08:22;;;;;;;50.05;27.90;;;;;;;;;;5058436;28;20029;-66
2021/07/28 02:10:49;;;;;;;48.45;28.73;;;;;;;;;;5059726;28;20025;-66
2021/07/28 02:13:16;;;;;;;53.60;28.05;;;;;;;;;;5057538;28;20082;-67
2021/07/28 02:15:43;;;;;;;52.97;30.45;;;;;;;;;;5054235;28;20021;-66
2021/07/28 02:18:09;;;;;;;51.35;26.40;;;;;;;;;;5058852;28;21214;-66
2021/07/28 02:20:35;;;;;;;48.17;27.45;;;;;;;;;;5062869;28;20108;-66
2021/07/28 02:23:01;;;;;;;47.70;26.75;;;;;;;;;;5055951;28;20044;-66
2021/07/28 02:25:27;;;;;;;40.80;26.45;;;;;;;;;;5048593;28;20031;-66
2021/07/28 02:27:54;;;;;;;49.08;26.30;;;;;;;;;;5052446;28;20021;-66
2021/07/28 02:30:20;;;;;;;40.33;23.27;;;;;;;;;;5062503;28;20029;-66
2021/07/28 02:32:46;;;;;;;38.33;22.45;;;;;;;;;;5060835;28;20016;-66
2021/07/28 02:35:13;;;;;;;36.13;21.23;;;;;;;;;;5057789;28;20044;-67
2021/07/28 02:37:41;;;;;;;39.50;21.25;;;;;;;;;;5059876;28;20024;-66
2021/07/28 02:40:08;;;;;;;38.30;21.55;;;;;;;;;;5059764;28;20024;-66
2021/07/28 02:42:34;;;;;;;43.97;22.27;;;;;;;;;;5058776;28;20032;-66
2021/07/28 02:45:00;;;;;;;39.63;23.88;;;;;;;;;;5055486;28;20030;-66
2021/07/28 02:47:26;;;;;;;43.58;22.55;;;;;;;;;;5056489;28;20047;-66
2021/07/28 02:49:52;;;;;;;36.78;22.08;;;;;;;;;;5055891;28;20036;-66
2021/07/28 02:52:18;;;;;;;35.03;21.00;;;;;;;;;;5058571;28;20056;-66
2021/07/28 02:54:44;;;;;;;37.58;20.88;;;;;;;;;;5053786;28;20032;-66
2021/07/28 02:57:10;;;;;;;40.05;20.70;;;;;;;;;;5054431;28;20036;-66
2021/07/28 02:59:36;;;;;;;29.67;19.52;;;;;;;;;;5060327;28;20025;-66
2021/07/28 03:02:02;;;;;;;37.30;17.55;;;;;;;;;;5061259;28;20087;-66
2021/07/28 03:04:28;;;;;;;31.42;18.10;;;;;;;;;;5058371;28;20032;-66
2021/07/28 03:06:54;;;;;;;33.22;17.92;;;;;;;;;;5054583;28;20029;-67
2021/07/28 03:09:20;;;;;;;29.15;17.33;;;;;;;;;;5056549;28;20035;-66
2021/07/28 03:11:46;;;;;;;28.25;16.45;;;;;;;;;;5054699;28;20028;-66
2021/07/28 03:14:12;;;;;;;30.83;15.68;;;;;;;;;;5056526;28;20054;-67
2021/07/28 03:16:41;;;;;;;30.02;15.20;;;;;;;;;;5055294;28;20064;-66
2021/07/28 03:19:07;;;;;;;28.17;14.38;;;;;;;;;;5063077;28;20111;-66
2021/07/28 03:21:34;;;;;;;28.10;14.93;;;;;;;;;;5055304;28;20045;-66
2021/07/28 03:24:00;;;;;;;26.13;14.52;;;;;;;;;;5054584;28;20063;-67
2021/07/28 03:26:26;;;;;;;28.45;16.45;;;;;;;;;;5056268;28;20024;-66
2021/07/28 03:28:52;;;;;;;30.35;14.38;;;;;;;;;;5056449;28;20024;-66
2021/07/28 03:31:18;;;;;;;33.28;16.08;;;;;;;;;;5056670;28;20107;-67
2021/07/28 03:33:44;;;;;;;25.90;14.40;;;;;;;;;;5056806;28;20063;-66
2021/07/28 03:36:10;;;;;;;31.45;15.77;;;;;;;;;;5055755;28;20048;-66
2021/07/28 03:38:36;;;;;;;27.85;16.33;;;;;;;;;;5055776;28;20021;-66
2021/07/28 03:41:02;;;;;;;25.00;15.38;;;;;;;;;;5058517;28;20036;-66
2021/07/28 03:43:28;;;;;;;30.80;15.75;;;;;;;;;;5062760;28;20561;-67
2021/07/28 03:45:54;;;;;;;31.27;16.60;;;;;;;;;;5055800;28;20056;-66
2021/07/28 03:48:21;;;;;;;31.92;17.00;;;;;;;;;;5057207;28;20028;-66
2021/07/28 03:50:47;;;;;;;30.92;18.20;;;;;;;;;;5060974;28;20090;-67
2021/07/28 03:53:13;;;;;;;34.30;18.58;;;;;;;;;;5055912;28;20043;-67
2021/07/28 03:55:39;;;;;;;42.35;19.05;;;;;;;;;;5053475;28;20017;-67
2021/07/28 03:58:05;;;;;;;28.85;17.27;;;;;;;;;;5057354;28;20029;-67
2021/07/28 04:00:31;;;;;;;34.53;19.30;;;;;;;;;;5056406;28;20082;-67
2021/07/28 04:02:57;;;;;;;37.33;18.67;;;;;;;;;;5055071;28;20039;-67
2021/07/28 04:05:23;;;;;;;39.30;18.75;;;;;;;;;;5057945;28;20499;-67
2021/07/28 04:07:56;;;;;;;32.17;18.13;;;;;;;;;;5058610;28;20027;-67
2021/07/28 04:10:22;;;;;;;37.22;18.13;;;;;;;;;;5060509;28;20056;-67
2021/07/28 04:12:48;;;;;;;29.58;17.42;;;;;;;;;;5053337;28;20075;-67
2021/07/28 04:15:14;;;;;;;31.90;17.02;;;;;;;;;;5052723;28;20708;-67
2021/07/28 04:17:40;;;;;;;30.17;17.20;;;;;;;;;;5055584;28;20028;-67
2021/07/28 04:20:08;;;;;;;30.15;16.73;;;;;;;;;;5056924;28;20033;-67
2021/07/28 04:22:35;;;;;;;35.30;17.38;;;;;;;;;;5059471;28;20079;-67
2021/07/28 04:25:05;;;;;;;29.77;16.63;;;;;;;;;;5056159;28;20094;-68
2021/07/28 04:27:31;;;;;;;26.98;15.02;;;;;;;;;;5055213;28;20025;-67
2021/07/28 04:29:57;;;;;;;32.35;17.60;;;;;;;;;;5053785;28;20033;-67
2021/07/28 04:32:24;;;;;;;35.78;17.70;;;;;;;;;;5056675;28;20037;-67
2021/07/28 04:34:50;;;;;;;32.72;17.40;;;;;;;;;;5055933;28;20029;-67
2021/07/28 04:37:16;;;;;;;33.97;18.38;;;;;;;;;;5053672;28;20110;-67
2021/07/28 04:39:42;;;;;;;36.15;18.27;;;;;;;;;;5056389;28;20029;-68
2021/07/28 04:42:08;;;;;;;31.15;17.65;;;;;;;;;;5057026;28;20033;-67
2021/07/28 04:44:34;;;;;;;30.80;18.85;;;;;;;;;;5051389;28;20030;-67
2021/07/28 04:47:00;;;;;;;29.02;17.73;;;;;;;;;;5051015;28;20087;-67
2021/07/28 04:49:27;;;;;;;38.30;18.75;;;;;;;;;;5053119;28;20029;-68
2021/07/28 04:51:53;;;;;;;33.20;17.88;;;;;;;;;;5055644;28;20033;-67
2021/07/28 04:54:19;;;;;;;35.38;17.95;;;;;;;;;;5048075;28;20686;-67
2021/07/28 04:56:45;;;;;;;37.75;18.17;;;;;;;;;;5048871;28;20025;-67
2021/07/28 04:59:11;;;;;;;28.50;17.13;;;;;;;;;;5050727;28;20021;-68
2021/07/28 05:01:37;;;;;;;33.67;17.55;;;;;;;;;;5042659;28;20082;-67
2021/07/28 05:04:04;;;;;;;29.80;17.10;;;;;;;;;;5048537;28;20033;-68
2021/07/28 05:06:30;;;;;;;37.55;17.15;;;;;;;;;;5053655;28;20236;-68
2021/07/28 05:08:56;;;;;;;29.38;14.50;;;;;;;;;;5050449;28;20632;-67
2021/07/28 05:11:22;;;;;;;31.48;16.83;;;;;;;;;;5053797;28;20025;-67
2021/07/28 05:13:48;;;;;;;30.13;14.43;;;;;;;;;;5052772;28;20021;-67
2021/07/28 05:16:14;;;;;;;27.23;14.13;;;;;;;;;;5060070;28;20036;-67
2021/07/28 05:18:40;;;;;;;31.20;14.38;;;;;;;;;;5060433;28;20028;-67
2021/07/28 05:21:06;;;;;;;30.60;15.45;;;;;;;;;;5055302;28;20045;-68
2021/07/28 05:23:32;;;;;;;30.63;14.15;;;;;;;;;;5059662;28;20029;-67
2021/07/28 05:25:59;;;;;;;27.02;13.63;;;;;;;;;;5051491;28;20032;-66
2021/07/28 05:28:25;;;;;;;35.33;16.15;;;;;;;;;;5053723;28;20044;-67
2021/07/28 05:30:51;;;;;;;28.58;14.15;;;;;;;;;;5051182;28;20017;-67
2021/07/28 05:33:18;;;;;;;21.98;13.68;;;;;;;;;;5049690;28;20040;-67
2021/07/28 05:35:48;;;;;;;24.48;13.88;;;;;;;;;;5054213;28;20071;-67
2021/07/28 05:38:14;;;;;;;27.02;14.07;;;;;;;;;;5065588;28;20037;-67
2021/07/28 05:40:40;;;;;;;33.63;14.48;;;;;;;;;;5064428;28;20040;-67
2021/07/28 05:43:06;;;;;;;25.60;14.70;;;;;;;;;;5053170;28;20515;-66
2021/07/28 05:45:32;;;;;;;37.53;15.23;;;;;;;;;;5050166;28;20444;-66
2021/07/28 05:47:59;;;;;;;29.88;13.43;;;;;;;;;;5053745;28;20086;-67
2021/07/28 05:50:25;;;;;;;22.58;14.45;;;;;;;;;;5053031;28;20029;-67
2021/07/28 05:52:51;;;;;;;26.98;14.85;;;;;;;;;;5045755;28;20028;-67
2021/07/28 05:55:17;;;;;;;31.08;15.00;;;;;;;;;;5049364;28;20025;-67
2021/07/28 05:57:43;;;;;;;33.17;15.15;;;;;;;;;;5050624;28;20568;-67
2021/07/28 06:00:09;;;;;;;30.38;13.55;;;;;;;;;;5052235;28;20028;-65
2021/07/28 06:02:35;;;;;;;22.45;15.30;;;;;;;;;;5050900;28;20104;-67
2021/07/28 06:05:01;;;;;;;28.17;13.98;;;;;;;;;;5050772;28;20036;-66
2021/07/28 06:07:27;;;;;;;31.08;13.55;;;;;;;;;;5051713;28;20025;-67
2021/07/28 06:09:53;;;;;;;24.35;13.38;;;;;;;;;;5052630;28;20626;-66
2021/07/28 06:12:19;;;;;;;27.40;14.40;;;;;;;;;;5053038;28;20393;-66
2021/07/28 06:14:46;;;;;;;20.90;13.50;;;;;;;;;;5049770;28;20017;-67
2021/07/28 06:17:12;;;;;;;24.13;13.65;;;;;;;;;;5051213;28;20025;-67
2021/07/28 06:19:38;;;;;;;30.52;15.77;;;;;;;;;;5064870;28;20029;-67
2021/07/28 06:22:04;;;;;;;23.95;13.63;;;;;;;;;;5056569;28;20025;-65
2021/07/28 06:24:30;;;;;;;20.08;12.77;;;;;;;;;;5052489;28;20032;-67
2021/07/28 06:26:57;;;;;;;27.83;12.93;;;;;;;;;;5052007;28;20051;-66
2021/07/28 06:29:25;;;;;;;32.47;14.63;;;;;;;;;;5060058;28;20017;-66
2021/07/28 06:31:52;;;;;;;24.75;13.18;;;;;;;;;;5046365;28;20033;-64
2021/07/28 06:34:18;;;;;;;24.67;11.95;;;;;;;;;;5046078;28;20095;-66
2021/07/28 06:36:44;;;;;;;21.13;11.88;;;;;;;;;;5049744;28;20501;-65
2021/07/28 06:39:10;;;;;;;25.75;12.10;;;;;;;;;;5052708;28;20029;-66
2021/07/28 06:41:36;;;;;;;29.50;11.55;;;;;;;;;;5052294;28;20028;-67
2021/07/28 06:44:02;;;;;;;22.13;11.23;;;;;;;;;;5051830;28;20025;-66
2021/07/28 06:46:29;;;;;;;30.33;11.98;;;;;;;;;;5050258;28;20412;-66
2021/07/28 06:48:55;;;;;;;25.95;12.57;;;;;;;;;;5052159;28;20033;-66
2021/07/28 06:51:21;;;;;;;33.53;11.43;;;;;;;;;;5050766;28;20029;-67
2021/07/28 06:53:47;;;;;;;23.65;11.20;;;;;;;;;;5049983;28;20041;-65
2021/07/28 06:56:16;;;;;;;24.02;9.73;;;;;;;;;;5049531;28;20021;-66
2021/07/28 06:58:42;;;;;;;25.42;9.98;;;;;;;;;;5061407;28;20024;-66
2021/07/28 07:01:09;;;;;;;21.85;11.07;;;;;;;;;;5058473;28;20112;-66
2021/07/28 07:03:36;;;;;;;20.83;10.55;;;;;;;;;;5050696;28;20021;-65
2021/07/28 07:06:02;;;;;;;22.40;10.88;;;;;;;;;;5049758;28;20036;-65
2021/07/28 07:08:28;;;;;;;25.02;11.45;;;;;;;;;;5051446;28;20087;-65
2021/07/28 07:10:54;;;;;;;33.08;11.32;;;;;;;;;;5050628;28;20065;-66
2021/07/28 07:13:20;;;;;;;18.60;8.50;;;;;;;;;;5062671;28;20086;-65
2021/07/28 07:15:46;;;;;;;19.98;9.02;;;;;;;;;;5050600;28;20452;-66
2021/07/28 07:18:12;;;;;;;20.15;9.85;;;;;;;;;;5050104;28;20021;-64
2021/07/28 07:20:38;;;;;;;26.02;9.43;;;;;;;;;;5049846;28;20111;-66
2021/07/28 07:23:04;;;;;;;18.30;9.25;;;;;;;;;;5042247;28;20500;-66
2021/07/28 07:25:30;;;;;;;21.02;9.32;;;;;;;;;;5047429;28;20021;-67
2021/07/28 07:27:57;;;;;;;19.15;7.63;;;;;;;;;;5050224;28;20029;-64
2021/07/28 07:30:23;;;;;;;25.05;8.00;;;;;;;;;;5058023;28;20462;-65
2021/07/28 07:35:34;;;;;;;24.75;8.57;;;;;;;;;;5047519;28;20194;-66
2021/07/28 07:38:00;;;;;;;18.27;8.45;;;;;;;;;;5050380;28;20040;-65
2021/07/28 07:40:26;;;;;;;15.93;7.68;;;;;;;;;;5048883;28;20036;-66
2021/07/28 07:42:52;;;;;;;19.40;8.13;;;;;;;;;;5050794;28;20082;-66
2021/07/28 07:45:18;;;;;;;19.17;9.30;;;;;;;;;;5046541;28;20040;-67
2021/07/28 07:47:44;;;;;;;21.88;9.55;;;;;;;;;;5049875;28;20673;-66
2021/07/28 07:50:10;;;;;;;20.77;8.52;;;;;;;;;;5050948;28;20108;-65
2021/07/28 07:52:37;;;;;;;21.48;7.97;;;;;;;;;;5050212;28;20017;-65
2021/07/28 07:55:03;;;;;;;19.88;8.55;;;;;;;;;;5046805;28;20177;-66
2021/07/28 07:57:29;;;;;;;23.17;8.90;;;;;;;;;;5047668;28;20137;-66
2021/07/28 07:59:55;;;;;;;16.45;8.40;;;;;;;;;;5060205;28;20532;-66
2021/07/28 08:02:21;;;;;;;15.82;7.90;;;;;;;;;;5047982;28;20032;-66
2021/07/28 08:04:47;;;;;;;23.88;7.90;;;;;;;;;;5048100;28;20155;-65
2021/07/28 08:07:13;;;;;;;20.83;8.25;;;;;;;;;;5046585;28;20087;-65
2021/07/28 08:09:39;;;;;;;22.45;8.18;;;;;;;;;;5050252;28;20025;-64
2021/07/28 08:12:05;;;;;;;16.15;8.25;;;;;;;;;;5051046;28;20029;-65
2021/07/28 08:14:31;;;;;;;19.77;8.70;;;;;;;;;;5050076;28;20071;-65
2021/07/28 08:16:57;;;;;;;21.50;7.95;;;;;;;;;;5049370;28;20404;-66
2021/07/28 08:19:23;;;;;;;23.80;8.55;;;;;;;;;;5050191;28;20052;-66
2021/07/28 08:21:49;;;;;;;18.33;7.53;;;;;;;;;;5047682;28;20485;-66
2021/07/28 08:24:16;;;;;;;20.60;7.63;;;;;;;;;;5049811;28;20025;-65
2021/07/28 08:26:43;;;;;;;15.90;6.78;;;;;;;;;;5046984;28;20032;-65
2021/07/28 08:29:11;;;;;;;14.32;7.07;;;;;;;;;;5048586;28;20083;-66
2021/07/28 08:31:37;;;;;;;14.02;7.30;;;;;;;;;;5050008;28;20079;-66
2021/07/28 08:34:03;;;;;;;18.58;7.97;;;;;;;;;;5047808;28;20021;-65
2021/07/28 08:36:29;;;;;;;15.75;7.10;;;;;;;;;;5046864;28;20056;-65
2021/07/28 08:38:55;;;;;;;17.73;7.75;;;;;;;;;;5051436;28;20099;-66
2021/07/28 08:41:23;;;;;;;14.52;6.93;;;;;;;;;;5051322;28;20036;-65
2021/07/28 08:43:53;;;;;;;20.83;7.40;;;;;;;;;;5049912;28;20064;-65
2021/07/28 08:46:21;;;;;;;15.48;6.97;;;;;;;;;;5052092;28;20405;-66
2021/07/28 08:48:47;;;;;;;16.55;6.50;;;;;;;;;;5053155;28;20025;-65
2021/07/28 08:51:13;;;;;;;15.95;6.47;;;;;;;;;;5054805;28;20484;-65
2021/07/28 08:53:39;;;;;;;21.08;5.40;;;;;;;;;;5051208;28;20033;-66
2021/07/28 08:56:06;;;;;;;17.27;6.35;;;;;;;;;;5050319;28;20029;-66
2021/07/28 08:58:32;;;;;;;15.35;6.78;;;;;;;;;;5049623;28;20048;-65
2021/07/28 09:00:58;;;;;;;16.65;7.82;;;;;;;;;;5051356;28;20032;-65
2021/07/28 09:03:24;;;;;;;12.40;6.05;;;;;;;;;;5054607;28;20025;-66
2021/07/28 09:05:52;;;;;;;15.27;6.47;;;;;;;;;;5049442;28;20032;-66
2021/07/28 09:08:36;;;;;;;11.13;5.70;;;;;;;;;;5050062;28;20045;-65
2021/07/28 09:11:08;;;;;;;13.63;6.43;;;;;;;;;;5052336;28;20017;-65
2021/07/28 09:13:39;;;;;;;17.05;6.63;;;;;;;;;;5052674;28;20562;-65
2021/07/28 09:16:08;;;;;;;22.02;6.72;;;;;;;;;;5054582;28;20032;-65
2021/07/28 09:18:38;;;;;;;15.70;6.45;;;;;;;;;;5052865;28;20036;-65
2021/07/28 09:21:06;;;;;;;17.60;6.45;;;;;;;;;;5053465;28;20022;-65
2021/07/28 09:23:41;;;;;;;15.20;6.32;;;;;;;;;;5052413;28;20551;-65
2021/07/28 09:26:29;;;;;;;12.63;6.28;;;;;;;;;;5046481;28;20037;-66
2021/07/28 09:29:02;;;;;;;19.95;6.05;;;;;;;;;;5048622;28;20025;-65
2021/07/28 09:31:35;;;;;;;20.52;7.00;;;;;;;;;;5051975;28;20407;-65
2021/07/28 09:34:10;;;;;;;22.38;9.40;;;;;;;;;;5050954;28;20119;-65
2021/07/28 09:36:36;;;;;;;21.00;7.55;;;;;;;;;;5048838;28;20260;-65
2021/07/28 09:39:04;;;;;;;17.52;6.30;;;;;;;;;;5055521;28;20025;-66
2021/07/28 09:41:30;;;;;;;14.98;6.60;;;;;;;;;;5053318;28;20033;-65
2021/07/28 09:44:00;;;;;;;16.02;6.82;;;;;;;;;;5051122;28;20029;-63
2021/07/28 09:46:26;;;;;;;15.30;6.55;;;;;;;;;;5048359;28;20024;-64
2021/07/28 09:48:53;;;;;;;16.15;6.47;;;;;;;;;;5051831;28;20033;-65
2021/07/28 09:51:22;;;;;;;18.85;6.97;;;;;;;;;;5054599;28;20024;-64
2021/07/28 09:53:55;;;;;;;13.10;7.05;;;;;;;;;;5053528;28;20028;-65
2021/07/28 09:56:28;;;;;;;17.35;7.72;;;;;;;;;;5044095;28;20021;-65
2021/07/28 09:58:58;;;;;;;18.00;7.70;;;;;;;;;;5050578;28;20029;-67
2021/07/28 10:01:26;;;;;;;15.23;6.97;;;;;;;;;;5039000;28;20029;-65
2021/07/28 10:03:52;;;;;;;17.95;7.68;;;;;;;;;;5047698;28;20036;-66
2021/07/28 10:06:22;;;;;;;22.33;7.63;;;;;;;;;;5046439;28;20404;-65
2021/07/28 10:08:49;;;;;;;16.73;7.35;;;;;;;;;;5031548;28;20501;-64
2021/07/28 10:11:15;;;;;;;18.10;6.47;;;;;;;;;;5051535;28;20017;-65
2021/07/28 10:13:42;;;;;;;16.75;6.90;;;;;;;;;;5051684;28;20028;-66
2021/07/28 10:16:09;;;;;;;14.00;6.38;;;;;;;;;;5041846;28;20025;-64
2021/07/28 10:18:35;;;;;;;14.75;6.50;;;;;;;;;;5052155;28;20035;-65
2021/07/28 10:21:01;;;;;;;18.13;7.90;;;;;;;;;;5054404;28;20029;-65
2021/07/28 10:23:29;;;;;;;20.23;8.68;;;;;;;;;;5051899;28;20028;-65
2021/07/28 10:25:55;;;;;;;14.20;7.43;;;;;;;;;;5046847;28;20029;-65
2021/07/28 10:28:21;;;;;;;14.40;8.18;;;;;;;;;;5050983;28;20909;-64
2021/07/28 10:31:07;;;;;;;10.65;6.93;;;;;;;;;;5049381;28;20013;-65
2021/07/28 10:33:33;;;;;;;16.40;7.53;;;;;;;;;;5050678;28;20090;-64
2021/07/28 10:35:59;;;;;;;16.05;7.55;;;;;;;;;;5045381;28;20065;-65
2021/07/28 10:38:26;;;;;;;15.27;7.72;;;;;;;;;;5051181;28;20032;-64
2021/07/28 10:40:59;;;;;;;14.68;7.35;;;;;;;;;;5051813;28;20324;-66
2021/07/28 10:43:25;;;;;;;18.75;7.93;;;;;;;;;;5051661;28;20037;-64
2021/07/28 10:45:58;;;;;;;18.73;8.52;;;;;;;;;;5048894;28;20021;-65
2021/07/28 10:48:42;;;;;;;15.02;8.68;;;;;;;;;;5048809;28;20040;-64
2021/07/28 10:51:08;;;;;;;21.92;8.10;;;;;;;;;;5049040;28;20041;-66
2021/07/28 10:53:47;;;;;;;21.35;10.07;;;;;;;;;;5048773;28;20025;-66
2021/07/28 10:56:13;;;;;;;16.95;9.57;;;;;;;;;;5047369;28;20025;-65
2021/07/28 10:58:39;;;;;;;13.00;7.00;;;;;;;;;;5051119;28;20086;-65
2021/07/28 11:01:05;;;;;;;15.15;7.07;;;;;;;;;;5050165;28;20025;-64
2021/07/28 11:03:33;;;;;;;18.55;7.90;;;;;;;;;;5049986;28;20480;-65
2021/07/28 11:06:18;;;;;;;26.83;10.18;;;;;;;;;;5047600;28;20031;-67
2021/07/28 11:08:44;;;;;;;17.80;8.75;;;;;;;;;;5049436;28;20040;-68
2021/07/28 11:11:10;;;;;;;17.08;11.07;;;;;;;;;;5050535;28;20108;-67
2021/07/28 11:13:36;;;;;;;22.85;10.88;;;;;;;;;;5049963;28;20551;-67
2021/07/28 11:16:03;;;;;;;18.05;8.93;;;;;;;;;;5048105;28;20021;-66
2021/07/28 11:18:32;;;;;;;16.67;8.27;;;;;;;;;;5049818;28;20021;-65
2021/07/28 11:21:14;;;;;;;14.27;7.97;;;;;;;;;;5050279;28;20035;-67
2021/07/28 11:23:51;;;;;;;13.75;8.55;;;;;;;;;;5047295;28;20450;-66
2021/07/28 11:26:19;;;;;;;16.33;9.45;;;;;;;;;;5050536;28;20032;-66
2021/07/28 11:28:46;;;;;;;16.65;10.07;;;;;;;;;;5050164;28;20025;-65
2021/07/28 11:31:12;;;;;;;21.13;11.02;;;;;;;;;;5046055;28;20500;-65
2021/07/28 11:33:39;;;;;;;22.55;12.43;;;;;;;;;;5044516;28;20075;-67
2021/07/28 11:36:06;;;;;;;18.38;11.98;;;;;;;;;;5045700;28;20045;-67
2021/07/28 11:38:32;;;;;;;23.92;12.70;;;;;;;;;;5047121;28;20096;-67
2021/07/28 11:41:00;;;;;;;21.33;10.98;;;;;;;;;;5050951;28;20506;-66
2021/07/28 11:43:32;;;;;;;22.77;12.43;;;;;;;;;;5051770;28;20119;-67
2021/07/28 11:46:03;;;;;;;17.83;11.18;;;;;;;;;;5046405;28;20102;-66
2021/07/28 11:48:31;;;;;;;20.15;10.70;;;;;;;;;;5045253;28;20401;-67
2021/07/28 11:50:57;;;;;;;18.85;10.98;;;;;;;;;;5049453;28;20569;-67
2021/07/28 11:53:27;;;;;;;19.33;11.50;;;;;;;;;;5050519;28;20515;-68
2021/07/28 11:55:53;;;;;;;19.48;10.27;;;;;;;;;;5048188;28;20356;-68
2021/07/28 11:58:20;;;;;;;22.63;11.98;;;;;;;;;;5049619;28;20021;-70
2021/07/28 12:00:48;;;;;;;24.83;12.60;;;;;;;;;;5050307;28;20025;-69
2021/07/28 12:03:21;;;;;;;19.67;8.85;;;;;;;;;;5048590;28;20047;-68
2021/07/28 12:06:06;;;;;;;20.83;9.18;;;;;;;;;;5046737;28;20055;-67
2021/07/28 12:08:36;;;;;;;22.42;9.82;;;;;;;;;;5030984;28;20034;-68
2021/07/28 12:11:03;;;;;;;24.10;7.88;;;;;;;;;;5051071;28;20043;-68
2021/07/28 12:13:39;;;;;;;26.58;7.25;;;;;;;;;;5049223;28;20028;-68
2021/07/28 12:16:05;;;;;;;20.05;6.55;;;;;;;;;;5046997;28;20021;-67
2021/07/28 12:18:52;;;;;;;19.60;5.82;;;;;;;;;;5051272;28;20032;-68
2021/07/28 12:21:18;;;;;;;24.42;7.25;;;;;;;;;;5052556;28;20431;-67
2021/07/28 12:23:53;;;;;;;16.60;6.30;;;;;;;;;;5051398;28;20021;-66
2021/07/28 12:26:38;;;;;;;19.02;6.35;;;;;;;;;;5051765;28;20585;-67
2021/07/28 12:29:04;;;;;;;22.88;6.38;;;;;;;;;;5053651;28;20048;-66
2021/07/28 12:31:30;;;;;;;20.00;5.75;;;;;;;;;;5053651;28;20445;-67
2021/07/28 12:34:16;;;;;;;23.30;5.53;;;;;;;;;;5050402;28;20042;-67
2021/07/28 12:36:42;;;;;;;21.30;7.18;;;;;;;;;;5046242;28;20041;-67
2021/07/28 12:39:08;;;;;;;20.30;6.22;;;;;;;;;;5053490;28;20029;-66
2021/07/28 12:41:34;;;;;;;19.33;6.22;;;;;;;;;;5051529;28;20056;-64
2021/07/28 12:44:00;;;;;;;16.33;3.95;;;;;;;;;;5052950;28;20024;-65
2021/07/28 12:46:26;;;;;;;24.95;4.60;;;;;;;;;;5046647;28;20560;-66
2021/07/28 12:48:52;;;;;;;18.38;4.63;;;;;;;;;;5052580;28;20849;-65
2021/07/28 12:51:21;;;;;;;16.52;4.63;;;;;;;;;;5047894;28;20029;-65
2021/07/28 12:53:49;;;;;;;13.85;4.28;;;;;;;;;;5052431;28;20485;-67
2021/07/28 12:56:15;;;;;;;15.75;4.85;;;;;;;;;;5049047;28;20028;-67
2021/07/28 12:58:41;;;;;;;15.35;4.07;;;;;;;;;;5053111;28;20500;-67
2021/07/28 13:01:07;;;;;;;23.88;5.82;;;;;;;;;;5052090;28;20037;-64
2021/07/28 13:03:36;;;;;;;20.35;5.50;;;;;;;;;;5050027;28;20131;-69
2021/07/28 13:06:08;;;;;;;23.05;6.68;;;;;;;;;;5051029;28;20017;-65
2021/07/28 13:08:34;;;;;;;21.63;5.88;;;;;;;;;;5053617;28;20040;-66
2021/07/28 13:11:00;;;;;;;18.83;4.63;;;;;;;;;;5052292;28;20022;-67
2021/07/28 13:13:26;;;;;;;26.83;5.70;;;;;;;;;;5048502;28;20062;-66
2021/07/28 13:15:54;;;;;;;19.95;4.60;;;;;;;;;;5048924;28;20103;-64
2021/07/28 13:18:20;;;;;;;18.77;5.20;;;;;;;;;;5048023;28;20033;-67
2021/07/28 13:20:47;;;;;;;22.35;5.18;;;;;;;;;;5045991;28;20021;-64
2021/07/28 13:23:15;;;;;;;18.13;5.20;;;;;;;;;;5051267;28;20029;-65
2021/07/28 13:25:42;;;;;;;17.52;4.90;;;;;;;;;;5046491;28;20036;-65
2021/07/28 13:28:08;;;;;;;19.85;4.65;;;;;;;;;;5050174;28;20032;-64
2021/07/28 13:30:34;;;;;;;20.15;4.97;;;;;;;;;;5048773;28;20028;-66
2021/07/28 13:33:01;;;;;;;21.27;5.18;;;;;;;;;;5051816;28;20078;-65
2021/07/28 13:35:27;;;;;;;19.23;4.97;;;;;;;;;;5049685;28;20041;-64
2021/07/28 13:37:53;;;;;;;25.65;5.22;;;;;;;;;;5052911;28;20036;-64
2021/07/28 13:40:19;;;;;;;21.08;5.00;;;;;;;;;;5053486;28;20032;-64
2021/07/28 13:42:49;;;;;;;16.30;4.80;;;;;;;;;;5053181;28;20036;-65
2021/07/28 13:45:15;;;;;;;23.42;5.68;;;;;;;;;;5048964;28;20248;-65
2021/07/28 13:47:48;;;;;;;19.38;5.00;;;;;;;;;;5052249;28;20079;-64
2021/07/28 13:50:15;;;;;;;20.25;5.57;;;;;;;;;;5050524;28;20025;-64
2021/07/28 13:52:42;;;;;;;21.83;4.47;;;;;;;;;;5054234;28;20028;-63
2021/07/28 13:55:08;;;;;;;21.25;4.97;;;;;;;;;;5049974;28;20505;-66
2021/07/28 13:57:34;;;;;;;20.42;4.70;;;;;;;;;;5053567;28;20021;-64
2021/07/28 14:00:00;;;;;;;14.65;4.18;;;;;;;;;;5053337;28;20017;-65
2021/07/28 14:02:27;;;;;;;11.25;4.47;;;;;;;;;;5051621;28;20025;-63
2021/07/28 14:04:54;;;;;;;12.88;4.90;;;;;;;;;;5043310;28;20021;-65
2021/07/28 14:07:20;;;;;;;14.88;4.70;;;;;;;;;;5052063;28;20033;-65
2021/07/28 14:09:46;;;;;;;21.58;5.10;;;;;;;;;;5052713;28;20025;-64
2021/07/28 14:12:12;;;;;;;16.42;4.20;;;;;;;;;;5052781;28;20017;-64
2021/07/28 14:14:39;;;;;;;19.83;5.22;;;;;;;;;;5066787;28;20036;-63
2021/07/28 14:17:06;;;;;;;22.00;4.55;;;;;;;;;;5049538;28;20016;-64
2021/07/28 14:19:33;;;;;;;17.23;5.07;;;;;;;;;;5051038;28;20085;-65
2021/07/28 14:21:59;;;;;;;20.63;5.10;;;;;;;;;;5051050;28;20032;-65
2021/07/28 14:24:25;;;;;;;14.25;4.63;;;;;;;;;;5051283;28;20515;-66
2021/07/28 14:26:52;;;;;;;13.25;3.65;;;;;;;;;;5041363;28;20056;-65